createdAt,value
2022-08-18T00:03:59.065Z,26
2022-08-18T00:32:47.463Z,28
2022-08-18T01:02:06.027Z,26
2022-08-18T01:31:31.295Z,26
2022-08-18T02:00:51.450Z,28
2022-08-18T02:30:12.323Z,28
2022-08-18T02:59:31.870Z,26
2022-08-18T03:28:30.345Z,28
2022-08-18T03:57:49.294Z,28
2022-08-18T04:26:58.497Z,28
2022-08-18T04:56:15.096Z,28
2022-08-18T05:25:02.891Z,28
2022-08-18T05:54:19.914Z,27
2022-08-18T06:23:45.692Z,28
2022-08-18T06:53:18.992Z,32
2022-08-18T07:21:59.961Z,35
2022-08-18T07:51:25.094Z,29
2022-08-18T08:20:13.053Z,29
2022-08-18T08:49:39.143Z,33
2022-08-18T09:18:53.328Z,28
2022-08-18T10:17:21.959Z,28
2022-08-18T10:46:23.279Z,29
2022-08-18T11:14:52.058Z,33
2022-08-18T11:44:08.950Z,33
2022-08-18T12:13:35.369Z,35
2022-08-18T12:42:50.939Z,36
2022-08-18T13:11:47.355Z,41
2022-08-18T13:40:45.727Z,43
2022-08-18T14:09:36.870Z,44
2022-08-18T14:38:35.130Z,43
2022-08-18T15:07:49.695Z,40
2022-08-18T15:37:10.176Z,42
2022-08-18T16:06:36.668Z,44
2022-08-18T16:36:01.278Z,46
2022-08-18T17:05:24.773Z,42
2022-08-18T17:34:49.559Z,54
2022-08-18T18:04:17.044Z,50
2022-08-18T18:33:44.772Z,46
2022-08-18T19:03:10.513Z,44
2022-08-18T19:32:34.195Z,50
2022-08-18T20:01:39.121Z,52
2022-08-18T20:31:06.872Z,45
2022-08-18T21:00:22.579Z,46
2022-08-18T21:29:17.215Z,51
2022-08-18T21:58:32.498Z,50
2022-08-18T22:27:37.229Z,52
2022-08-18T22:57:02.651Z,51
2022-08-18T23:26:02.318Z,50
2022-08-18T23:55:18.112Z,53
